sensor_id;sensor_type;location;lat;lon;timestamp;P1;durP1;ratioP1;P2;durP2;ratioP2
21675;SDS011;10999;51.332;9.458;2023-12-20T00:00:38;9.07;;;4.20;;
21675;SDS011;10999;51.332;9.458;2023-12-20T00:03:17;8.95;;;3.67;;
21675;SDS011;10999;51.332;9.458;2023-12-20T00:06:02;9.95;;;3.30;;
21675;SDS011;10999;51.332;9.458;2023-12-20T00:08:42;10.27;;;3.92;;
21675;SDS011;10999;51.332;9.458;2023-12-20T00:11:20;9.40;;;3.42;;
21675;SDS011;10999;51.332;9.458;2023-12-20T00:13:51;8.85;;;3.70;;
21675;SDS011;10999;51.332;9.458;2023-12-20T00:16:22;9.80;;;3.65;;
21675;SDS011;10999;51.332;9.458;2023-12-20T00:18:51;11.57;;;4.22;;
21675;SDS011;10999;51.332;9.458;2023-12-20T00:21:28;9.85;;;3.53;;
21675;SDS011;10999;51.332;9.458;2023-12-20T00:24:03;10.77;;;4.10;;
21675;SDS011;10999;51.332;9.458;2023-12-20T00:26:39;10.52;;;3.95;;
21675;SDS011;10999;51.332;9.458;2023-12-20T00:29:10;10.10;;;3.97;;
21675;SDS011;10999;51.332;9.458;2023-12-20T00:31:48;10.32;;;3.83;;
21675;SDS011;10999;51.332;9.458;2023-12-20T00:34:22;9.60;;;3.75;;
21675;SDS011;10999;51.332;9.458;2023-12-20T00:36:53;8.70;;;3.65;;
21675;SDS011;10999;51.332;9.458;2023-12-20T00:39:24;9.88;;;3.60;;
21675;SDS011;10999;51.332;9.458;2023-12-20T00:41:55;10.00;;;3.72;;
21675;SDS011;10999;51.332;9.458;2023-12-20T00:44:27;11.20;;;4.47;;
21675;SDS011;10999;51.332;9.458;2023-12-20T00:47:10;10.48;;;4.18;;
21675;SDS011;10999;51.332;9.458;2023-12-20T00:49:39;10.35;;;4.13;;
21675;SDS011;10999;51.332;9.458;2023-12-20T00:52:08;10.93;;;4.43;;
21675;SDS011;10999;51.332;9.458;2023-12-20T00:54:40;10.95;;;4.18;;
21675;SDS011;10999;51.332;9.458;2023-12-20T00:57:09;11.73;;;4.35;;
21675;SDS011;10999;51.332;9.458;2023-12-20T00:59:37;11.75;;;4.57;;
21675;SDS011;10999;51.332;9.458;2023-12-20T01:02:05;13.75;;;5.35;;
21675;SDS011;10999;51.332;9.458;2023-12-20T01:04:33;10.70;;;4.68;;
21675;SDS011;10999;51.332;9.458;2023-12-20T01:07:03;9.52;;;3.35;;
21675;SDS011;10999;51.332;9.458;2023-12-20T01:09:32;10.20;;;3.90;;
21675;SDS011;10999;51.332;9.458;2023-12-20T01:12:00;15.55;;;4.53;;
21675;SDS011;10999;51.332;9.458;2023-12-20T01:14:29;10.57;;;4.22;;
21675;SDS011;10999;51.332;9.458;2023-12-20T01:16:56;10.00;;;4.15;;
21675;SDS011;10999;51.332;9.458;2023-12-20T01:19:25;10.90;;;3.72;;
21675;SDS011;10999;51.332;9.458;2023-12-20T01:21:57;8.55;;;3.63;;
21675;SDS011;10999;51.332;9.458;2023-12-20T01:24:24;9.93;;;3.90;;
21675;SDS011;10999;51.332;9.458;2023-12-20T01:26:51;9.57;;;3.72;;
21675;SDS011;10999;51.332;9.458;2023-12-20T01:29:19;9.25;;;3.55;;
21675;SDS011;10999;51.332;9.458;2023-12-20T01:31:46;10.50;;;3.45;;
21675;SDS011;10999;51.332;9.458;2023-12-20T01:34:13;13.93;;;4.57;;
21675;SDS011;10999;51.332;9.458;2023-12-20T01:36:40;8.35;;;3.22;;
21675;SDS011;10999;51.332;9.458;2023-12-20T01:39:07;9.95;;;3.80;;
21675;SDS011;10999;51.332;9.458;2023-12-20T01:41:50;10.13;;;3.72;;
21675;SDS011;10999;51.332;9.458;2023-12-20T01:44:18;9.27;;;3.70;;
21675;SDS011;10999;51.332;9.458;2023-12-20T01:46:46;7.70;;;3.33;;
21675;SDS011;10999;51.332;9.458;2023-12-20T01:49:14;8.55;;;3.30;;
21675;SDS011;10999;51.332;9.458;2023-12-20T01:51:45;11.27;;;3.20;;
21675;SDS011;10999;51.332;9.458;2023-12-20T01:54:14;8.82;;;3.45;;
21675;SDS011;10999;51.332;9.458;2023-12-20T01:56:44;7.55;;;3.38;;
21675;SDS011;10999;51.332;9.458;2023-12-20T01:59:16;9.10;;;3.72;;
21675;SDS011;10999;51.332;9.458;2023-12-20T02:04:19;10.55;;;3.30;;
21675;SDS011;10999;51.332;9.458;2023-12-20T02:06:48;8.18;;;3.00;;
21675;SDS011;10999;51.332;9.458;2023-12-20T02:09:24;9.60;;;3.38;;
21675;SDS011;10999;51.332;9.458;2023-12-20T02:12:05;10.43;;;3.67;;
21675;SDS011;10999;51.332;9.458;2023-12-20T02:14:38;7.30;;;2.90;;
21675;SDS011;10999;51.332;9.458;2023-12-20T02:17:08;8.45;;;3.10;;
21675;SDS011;10999;51.332;9.458;2023-12-20T02:19:41;7.78;;;3.10;;
21675;SDS011;10999;51.332;9.458;2023-12-20T02:22:12;7.80;;;2.63;;
21675;SDS011;10999;51.332;9.458;2023-12-20T02:24:42;8.05;;;3.10;;
21675;SDS011;10999;51.332;9.458;2023-12-20T02:27:17;8.93;;;3.60;;
21675;SDS011;10999;51.332;9.458;2023-12-20T02:29:48;7.57;;;2.80;;
21675;SDS011;10999;51.332;9.458;2023-12-20T02:32:21;7.88;;;2.83;;
21675;SDS011;10999;51.332;9.458;2023-12-20T02:34:56;6.18;;;2.40;;
21675;SDS011;10999;51.332;9.458;2023-12-20T02:37:24;6.32;;;2.33;;
21675;SDS011;10999;51.332;9.458;2023-12-20T02:39:56;4.43;;;1.60;;
21675;SDS011;10999;51.332;9.458;2023-12-20T02:42:28;2.97;;;0.90;;
21675;SDS011;10999;51.332;9.458;2023-12-20T02:44:59;3.70;;;0.90;;
21675;SDS011;10999;51.332;9.458;2023-12-20T02:47:36;2.95;;;0.60;;
21675;SDS011;10999;51.332;9.458;2023-12-20T02:50:25;3.63;;;0.60;;
21675;SDS011;10999;51.332;9.458;2023-12-20T02:53:15;5.65;;;0.95;;
21675;SDS011;10999;51.332;9.458;2023-12-20T02:55:58;4.38;;;0.73;;
21675;SDS011;10999;51.332;9.458;2023-12-20T02:58:48;3.58;;;0.73;;
21675;SDS011;10999;51.332;9.458;2023-12-20T03:01:54;2.78;;;0.70;;
21675;SDS011;10999;51.332;9.458;2023-12-20T03:04:52;1.40;;;0.57;;
21675;SDS011;10999;51.332;9.458;2023-12-20T03:07:51;2.67;;;0.65;;
21675;SDS011;10999;51.332;9.458;2023-12-20T03:10:49;3.47;;;0.75;;
21675;SDS011;10999;51.332;9.458;2023-12-20T03:13:36;2.67;;;0.50;;
21675;SDS011;10999;51.332;9.458;2023-12-20T03:17:05;2.15;;;0.68;;
21675;SDS011;10999;51.332;9.458;2023-12-20T03:20:12;2.10;;;0.60;;
21675;SDS011;10999;51.332;9.458;2023-12-20T03:26:00;2.97;;;0.70;;
21675;SDS011;10999;51.332;9.458;2023-12-20T03:28:47;3.55;;;0.80;;
21675;SDS011;10999;51.332;9.458;2023-12-20T03:32:01;3.88;;;0.90;;
21675;SDS011;10999;51.332;9.458;2023-12-20T03:35:10;4.30;;;1.27;;
21675;SDS011;10999;51.332;9.458;2023-12-20T03:38:27;5.68;;;1.15;;
21675;SDS011;10999;51.332;9.458;2023-12-20T03:41:16;3.95;;;0.93;;
21675;SDS011;10999;51.332;9.458;2023-12-20T03:44:30;5.47;;;1.13;;
21675;SDS011;10999;51.332;9.458;2023-12-20T03:47:31;10.20;;;1.77;;
21675;SDS011;10999;51.332;9.458;2023-12-20T03:50:40;8.25;;;1.95;;
21675;SDS011;10999;51.332;9.458;2023-12-20T03:53:20;6.60;;;1.88;;
21675;SDS011;10999;51.332;9.458;2023-12-20T03:55:57;8.20;;;2.00;;
21675;SDS011;10999;51.332;9.458;2023-12-20T03:58:31;5.93;;;1.60;;
21675;SDS011;10999;51.332;9.458;2023-12-20T04:01:11;7.95;;;1.95;;
21675;SDS011;10999;51.332;9.458;2023-12-20T04:03:47;6.95;;;2.00;;
21675;SDS011;10999;51.332;9.458;2023-12-20T04:06:32;7.47;;;2.38;;
21675;SDS011;10999;51.332;9.458;2023-12-20T04:09:15;10.68;;;2.28;;
21675;SDS011;10999;51.332;9.458;2023-12-20T04:11:51;10.18;;;3.85;;
21675;SDS011;10999;51.332;9.458;2023-12-20T04:14:35;7.78;;;2.00;;
21675;SDS011;10999;51.332;9.458;2023-12-20T04:17:16;9.00;;;2.67;;
21675;SDS011;10999;51.332;9.458;2023-12-20T04:19:53;8.95;;;2.40;;
21675;SDS011;10999;51.332;9.458;2023-12-20T04:22:22;6.15;;;1.98;;
21675;SDS011;10999;51.332;9.458;2023-12-20T04:24:52;7.20;;;2.17;;
21675;SDS011;10999;51.332;9.458;2023-12-20T04:27:22;7.35;;;2.10;;
21675;SDS011;10999;51.332;9.458;2023-12-20T04:29:54;6.65;;;1.80;;
21675;SDS011;10999;51.332;9.458;2023-12-20T04:32:29;7.22;;;1.90;;
21675;SDS011;10999;51.332;9.458;2023-12-20T04:35:03;4.90;;;1.52;;
21675;SDS011;10999;51.332;9.458;2023-12-20T04:37:42;8.95;;;1.92;;
21675;SDS011;10999;51.332;9.458;2023-12-20T04:40:11;6.43;;;1.60;;
21675;SDS011;10999;51.332;9.458;2023-12-20T04:42:40;6.55;;;1.50;;
21675;SDS011;10999;51.332;9.458;2023-12-20T04:45:11;6.13;;;1.58;;
21675;SDS011;10999;51.332;9.458;2023-12-20T04:47:45;4.40;;;1.40;;
21675;SDS011;10999;51.332;9.458;2023-12-20T04:50:17;7.45;;;1.60;;
21675;SDS011;10999;51.332;9.458;2023-12-20T04:52:49;6.88;;;1.40;;
21675;SDS011;10999;51.332;9.458;2023-12-20T04:55:18;9.20;;;1.77;;
21675;SDS011;10999;51.332;9.458;2023-12-20T04:57:50;5.55;;;1.55;;
21675;SDS011;10999;51.332;9.458;2023-12-20T05:00:18;4.82;;;1.35;;
21675;SDS011;10999;51.332;9.458;2023-12-20T05:02:48;5.97;;;1.13;;
21675;SDS011;10999;51.332;9.458;2023-12-20T05:05:18;6.20;;;1.70;;
21675;SDS011;10999;51.332;9.458;2023-12-20T05:07:50;7.68;;;1.45;;
21675;SDS011;10999;51.332;9.458;2023-12-20T05:10:23;6.03;;;1.15;;
21675;SDS011;10999;51.332;9.458;2023-12-20T05:13:00;3.60;;;1.30;;
21675;SDS011;10999;51.332;9.458;2023-12-20T05:15:35;4.85;;;1.10;;
21675;SDS011;10999;51.332;9.458;2023-12-20T05:18:20;5.57;;;1.67;;
21675;SDS011;10999;51.332;9.458;2023-12-20T05:21:00;4.07;;;1.02;;
21675;SDS011;10999;51.332;9.458;2023-12-20T05:26:28;6.57;;;1.20;;
21675;SDS011;10999;51.332;9.458;2023-12-20T05:29:13;5.03;;;0.98;;
21675;SDS011;10999;51.332;9.458;2023-12-20T05:32:11;4.78;;;1.08;;
21675;SDS011;10999;51.332;9.458;2023-12-20T05:34:44;6.63;;;1.00;;
21675;SDS011;10999;51.332;9.458;2023-12-20T05:37:49;5.65;;;1.20;;
21675;SDS011;10999;51.332;9.458;2023-12-20T05:40:37;5.28;;;1.02;;
21675;SDS011;10999;51.332;9.458;2023-12-20T05:43:27;8.48;;;1.48;;
21675;SDS011;10999;51.332;9.458;2023-12-20T05:46:13;5.57;;;1.17;;
21675;SDS011;10999;51.332;9.458;2023-12-20T05:48:49;4.35;;;1.20;;
21675;SDS011;10999;51.332;9.458;2023-12-20T05:51:39;4.93;;;0.95;;
21675;SDS011;10999;51.332;9.458;2023-12-20T05:54:14;5.90;;;1.13;;
21675;SDS011;10999;51.332;9.458;2023-12-20T05:56:58;5.10;;;1.00;;
21675;SDS011;10999;51.332;9.458;2023-12-20T05:59:53;3.60;;;0.98;;
21675;SDS011;10999;51.332;9.458;2023-12-20T06:02:46;6.45;;;1.20;;
21675;SDS011;10999;51.332;9.458;2023-12-20T06:05:51;5.15;;;1.27;;
21675;SDS011;10999;51.332;9.458;2023-12-20T06:08:43;5.18;;;1.20;;
21675;SDS011;10999;51.332;9.458;2023-12-20T06:11:31;2.17;;;1.02;;
21675;SDS011;10999;51.332;9.458;2023-12-20T06:14:02;3.78;;;1.17;;
21675;SDS011;10999;51.332;9.458;2023-12-20T06:16:35;3.53;;;1.10;;
21675;SDS011;10999;51.332;9.458;2023-12-20T06:19:15;5.40;;;1.58;;
21675;SDS011;10999;51.332;9.458;2023-12-20T06:21:52;5.40;;;1.63;;
21675;SDS011;10999;51.332;9.458;2023-12-20T06:24:27;5.32;;;1.50;;
21675;SDS011;10999;51.332;9.458;2023-12-20T06:27:03;6.30;;;1.63;;
21675;SDS011;10999;51.332;9.458;2023-12-20T06:29:42;4.53;;;1.52;;
21675;SDS011;10999;51.332;9.458;2023-12-20T06:32:14;5.70;;;1.55;;
21675;SDS011;10999;51.332;9.458;2023-12-20T06:34:45;9.70;;;1.90;;
21675;SDS011;10999;51.332;9.458;2023-12-20T06:37:23;5.40;;;1.55;;
21675;SDS011;10999;51.332;9.458;2023-12-20T06:39:55;3.80;;;1.30;;
21675;SDS011;10999;51.332;9.458;2023-12-20T06:42:44;5.68;;;1.48;;
21675;SDS011;10999;51.332;9.458;2023-12-20T06:45:34;6.15;;;1.92;;
21675;SDS011;10999;51.332;9.458;2023-12-20T06:48:17;9.00;;;1.52;;
21675;SDS011;10999;51.332;9.458;2023-12-20T06:50:54;7.57;;;1.70;;
21675;SDS011;10999;51.332;9.458;2023-12-20T06:53:28;8.05;;;1.90;;
21675;SDS011;10999;51.332;9.458;2023-12-20T06:55:59;8.90;;;1.88;;
21675;SDS011;10999;51.332;9.458;2023-12-20T06:58:30;7.47;;;2.33;;
21675;SDS011;10999;51.332;9.458;2023-12-20T07:01:03;5.80;;;1.75;;
21675;SDS011;10999;51.332;9.458;2023-12-20T07:03:39;7.55;;;2.35;;
21675;SDS011;10999;51.332;9.458;2023-12-20T07:06:11;5.70;;;1.60;;
21675;SDS011;10999;51.332;9.458;2023-12-20T07:08:45;7.22;;;1.67;;
21675;SDS011;10999;51.332;9.458;2023-12-20T07:11:15;6.38;;;1.92;;
21675;SDS011;10999;51.332;9.458;2023-12-20T07:13:47;4.60;;;1.65;;
21675;SDS011;10999;51.332;9.458;2023-12-20T07:16:21;8.88;;;2.28;;
21675;SDS011;10999;51.332;9.458;2023-12-20T07:18:54;5.85;;;1.83;;
21675;SDS011;10999;51.332;9.458;2023-12-20T07:21:26;6.18;;;1.73;;
21675;SDS011;10999;51.332;9.458;2023-12-20T07:24:08;12.13;;;2.30;;
21675;SDS011;10999;51.332;9.458;2023-12-20T07:26:39;5.80;;;1.70;;
21675;SDS011;10999;51.332;9.458;2023-12-20T07:29:10;7.88;;;1.90;;
21675;SDS011;10999;51.332;9.458;2023-12-20T07:31:40;7.07;;;1.60;;
21675;SDS011;10999;51.332;9.458;2023-12-20T07:34:16;6.63;;;1.75;;
21675;SDS011;10999;51.332;9.458;2023-12-20T07:36:48;6.82;;;1.60;;
21675;SDS011;10999;51.332;9.458;2023-12-20T07:39:21;8.52;;;2.35;;
21675;SDS011;10999;51.332;9.458;2023-12-20T07:41:56;7.32;;;1.70;;
21675;SDS011;10999;51.332;9.458;2023-12-20T07:44:27;4.85;;;1.65;;
21675;SDS011;10999;51.332;9.458;2023-12-20T07:49:31;7.53;;;2.10;;
21675;SDS011;10999;51.332;9.458;2023-12-20T07:52:00;7.93;;;2.28;;
21675;SDS011;10999;51.332;9.458;2023-12-20T07:54:31;8.18;;;1.65;;
21675;SDS011;10999;51.332;9.458;2023-12-20T07:57:03;6.75;;;1.50;;
21675;SDS011;10999;51.332;9.458;2023-12-20T07:59:45;7.70;;;2.03;;
21675;SDS011;10999;51.332;9.458;2023-12-20T08:02:13;10.07;;;2.20;;
21675;SDS011;10999;51.332;9.458;2023-12-20T08:04:42;9.98;;;1.70;;
21675;SDS011;10999;51.332;9.458;2023-12-20T08:07:15;6.63;;;1.88;;
21675;SDS011;10999;51.332;9.458;2023-12-20T08:09:43;7.70;;;2.55;;
21675;SDS011;10999;51.332;9.458;2023-12-20T08:12:13;3.42;;;1.60;;
21675;SDS011;10999;51.332;9.458;2023-12-20T08:14:42;8.05;;;2.03;;
21675;SDS011;10999;51.332;9.458;2023-12-20T08:17:12;6.30;;;1.58;;
21675;SDS011;10999;51.332;9.458;2023-12-20T08:19:43;8.57;;;1.95;;
21675;SDS011;10999;51.332;9.458;2023-12-20T08:22:11;9.45;;;1.80;;
21675;SDS011;10999;51.332;9.458;2023-12-20T08:24:40;8.77;;;2.10;;
21675;SDS011;10999;51.332;9.458;2023-12-20T08:27:08;5.85;;;1.70;;
21675;SDS011;10999;51.332;9.458;2023-12-20T08:29:35;12.52;;;1.63;;
21675;SDS011;10999;51.332;9.458;2023-12-20T08:32:05;9.40;;;1.75;;
21675;SDS011;10999;51.332;9.458;2023-12-20T08:34:40;7.45;;;1.20;;
21675;SDS011;10999;51.332;9.458;2023-12-20T08:37:10;7.45;;;1.58;;
21675;SDS011;10999;51.332;9.458;2023-12-20T08:39:40;7.68;;;1.52;;
21675;SDS011;10999;51.332;9.458;2023-12-20T08:42:11;8.85;;;1.60;;
21675;SDS011;10999;51.332;9.458;2023-12-20T08:44:38;10.63;;;2.53;;
21675;SDS011;10999;51.332;9.458;2023-12-20T08:47:08;7.00;;;1.85;;
21675;SDS011;10999;51.332;9.458;2023-12-20T08:49:40;9.45;;;1.60;;
21675;SDS011;10999;51.332;9.458;2023-12-20T08:52:07;8.40;;;1.60;;
21675;SDS011;10999;51.332;9.458;2023-12-20T08:54:36;10.75;;;2.20;;
21675;SDS011;10999;51.332;9.458;2023-12-20T08:57:10;8.43;;;2.25;;
21675;SDS011;10999;51.332;9.458;2023-12-20T08:59:42;7.80;;;2.42;;
21675;SDS011;10999;51.332;9.458;2023-12-20T09:02:10;7.22;;;2.22;;
21675;SDS011;10999;51.332;9.458;2023-12-20T09:04:39;8.65;;;1.90;;
21675;SDS011;10999;51.332;9.458;2023-12-20T09:07:21;6.35;;;2.17;;
21675;SDS011;10999;51.332;9.458;2023-12-20T09:09:54;7.05;;;2.05;;
21675;SDS011;10999;51.332;9.458;2023-12-20T09:12:33;6.40;;;1.60;;
21675;SDS011;10999;51.332;9.458;2023-12-20T09:15:20;9.30;;;1.88;;
21675;SDS011;10999;51.332;9.458;2023-12-20T09:17:58;4.78;;;1.20;;
21675;SDS011;10999;51.332;9.458;2023-12-20T09:20:29;4.80;;;1.60;;
21675;SDS011;10999;51.332;9.458;2023-12-20T09:23:15;4.80;;;1.77;;
21675;SDS011;10999;51.332;9.458;2023-12-20T09:26:26;9.40;;;1.83;;
21675;SDS011;10999;51.332;9.458;2023-12-20T09:29:24;7.28;;;2.20;;
21675;SDS011;10999;51.332;9.458;2023-12-20T09:32:08;9.70;;;2.15;;
21675;SDS011;10999;51.332;9.458;2023-12-20T09:35:05;8.23;;;1.70;;
21675;SDS011;10999;51.332;9.458;2023-12-20T09:37:48;4.47;;;1.35;;
21675;SDS011;10999;51.332;9.458;2023-12-20T09:40:43;7.82;;;1.73;;
21675;SDS011;10999;51.332;9.458;2023-12-20T09:43:27;9.63;;;2.25;;
21675;SDS011;10999;51.332;9.458;2023-12-20T09:46:32;6.22;;;1.73;;
21675;SDS011;10999;51.332;9.458;2023-12-20T09:49:31;5.95;;;1.92;;
21675;SDS011;10999;51.332;9.458;2023-12-20T09:52:18;4.85;;;1.95;;
21675;SDS011;10999;51.332;9.458;2023-12-20T09:54:57;10.05;;;1.95;;
21675;SDS011;10999;51.332;9.458;2023-12-20T09:57:28;9.23;;;1.92;;
21675;SDS011;10999;51.332;9.458;2023-12-20T10:00:40;7.20;;;1.90;;
21675;SDS011;10999;51.332;9.458;2023-12-20T10:03:07;8.20;;;1.75;;
21675;SDS011;10999;51.332;9.458;2023-12-20T10:05:35;4.35;;;1.65;;
21675;SDS011;10999;51.332;9.458;2023-12-20T10:08:02;6.50;;;1.70;;
21675;SDS011;10999;51.332;9.458;2023-12-20T10:10:30;5.47;;;1.40;;
21675;SDS011;10999;51.332;9.458;2023-12-20T10:13:11;6.88;;;1.67;;
21675;SDS011;10999;51.332;9.458;2023-12-20T10:15:40;4.05;;;1.38;;
21675;SDS011;10999;51.332;9.458;2023-12-20T10:18:08;5.03;;;1.63;;
21675;SDS011;10999;51.332;9.458;2023-12-20T10:20:36;5.57;;;1.15;;
21675;SDS011;10999;51.332;9.458;2023-12-20T10:23:03;10.48;;;1.85;;
21675;SDS011;10999;51.332;9.458;2023-12-20T10:25:30;8.27;;;1.70;;
21675;SDS011;10999;51.332;9.458;2023-12-20T10:28:08;6.32;;;1.45;;
21675;SDS011;10999;51.332;9.458;2023-12-20T10:30:40;3.85;;;1.73;;
21675;SDS011;10999;51.332;9.458;2023-12-20T10:33:08;6.93;;;2.15;;
21675;SDS011;10999;51.332;9.458;2023-12-20T10:35:37;4.95;;;1.63;;
21675;SDS011;10999;51.332;9.458;2023-12-20T10:38:08;7.32;;;1.75;;
21675;SDS011;10999;51.332;9.458;2023-12-20T10:40:36;7.22;;;1.65;;
21675;SDS011;10999;51.332;9.458;2023-12-20T10:43:04;5.38;;;1.90;;
21675;SDS011;10999;51.332;9.458;2023-12-20T10:45:32;5.80;;;1.40;;
21675;SDS011;10999;51.332;9.458;2023-12-20T10:47:59;8.38;;;1.85;;
21675;SDS011;10999;51.332;9.458;2023-12-20T10:50:28;5.05;;;1.77;;
21675;SDS011;10999;51.332;9.458;2023-12-20T10:52:56;5.28;;;1.63;;
21675;SDS011;10999;51.332;9.458;2023-12-20T10:55:24;5.95;;;1.88;;
21675;SDS011;10999;51.332;9.458;2023-12-20T10:57:52;4.68;;;1.52;;
21675;SDS011;10999;51.332;9.458;2023-12-20T11:00:26;4.93;;;1.58;;
21675;SDS011;10999;51.332;9.458;2023-12-20T11:03:00;5.40;;;1.70;;
21675;SDS011;10999;51.332;9.458;2023-12-20T11:05:44;4.07;;;1.60;;
21675;SDS011;10999;51.332;9.458;2023-12-20T11:08:28;3.15;;;1.10;;
21675;SDS011;10999;51.332;9.458;2023-12-20T11:11:05;6.38;;;1.40;;
21675;SDS011;10999;51.332;9.458;2023-12-20T11:13:40;5.38;;;1.50;;
21675;SDS011;10999;51.332;9.458;2023-12-20T11:16:20;3.53;;;1.25;;
21675;SDS011;10999;51.332;9.458;2023-12-20T11:18:50;5.22;;;1.65;;
21675;SDS011;10999;51.332;9.458;2023-12-20T11:21:17;6.20;;;1.40;;
21675;SDS011;10999;51.332;9.458;2023-12-20T11:23:44;8.02;;;1.88;;
21675;SDS011;10999;51.332;9.458;2023-12-20T11:26:13;4.80;;;1.33;;
21675;SDS011;10999;51.332;9.458;2023-12-20T11:28:43;6.35;;;1.50;;
21675;SDS011;10999;51.332;9.458;2023-12-20T11:31:13;5.68;;;1.25;;
21675;SDS011;10999;51.332;9.458;2023-12-20T11:33:41;6.15;;;1.50;;
21675;SDS011;10999;51.332;9.458;2023-12-20T11:36:14;6.05;;;1.40;;
21675;SDS011;10999;51.332;9.458;2023-12-20T11:38:50;5.57;;;1.42;;
21675;SDS011;10999;51.332;9.458;2023-12-20T11:41:24;2.47;;;1.15;;
21675;SDS011;10999;51.332;9.458;2023-12-20T11:43:55;2.00;;;1.05;;
21675;SDS011;10999;51.332;9.458;2023-12-20T11:46:22;3.40;;;1.15;;
21675;SDS011;10999;51.332;9.458;2023-12-20T11:48:50;4.50;;;1.30;;
21675;SDS011;10999;51.332;9.458;2023-12-20T11:51:17;6.72;;;1.60;;
21675;SDS011;10999;51.332;9.458;2023-12-20T11:53:44;6.85;;;1.55;;
21675;SDS011;10999;51.332;9.458;2023-12-20T11:56:11;6.88;;;1.45;;
21675;SDS011;10999;51.332;9.458;2023-12-20T11:58:39;5.45;;;1.52;;
21675;SDS011;10999;51.332;9.458;2023-12-20T12:01:06;5.40;;;1.60;;
21675;SDS011;10999;51.332;9.458;2023-12-20T12:03:35;4.78;;;1.45;;
21675;SDS011;10999;51.332;9.458;2023-12-20T12:06:02;6.38;;;1.65;;
21675;SDS011;10999;51.332;9.458;2023-12-20T12:08:31;7.15;;;1.45;;
21675;SDS011;10999;51.332;9.458;2023-12-20T12:10:58;5.13;;;1.40;;
21675;SDS011;10999;51.332;9.458;2023-12-20T12:13:25;4.90;;;1.30;;
21675;SDS011;10999;51.332;9.458;2023-12-20T12:15:54;3.75;;;1.15;;
21675;SDS011;10999;51.332;9.458;2023-12-20T12:18:21;4.22;;;1.20;;
21675;SDS011;10999;51.332;9.458;2023-12-20T12:20:48;8.38;;;1.55;;
21675;SDS011;10999;51.332;9.458;2023-12-20T12:23:15;5.97;;;1.63;;
21675;SDS011;10999;51.332;9.458;2023-12-20T12:25:50;4.03;;;1.35;;
21675;SDS011;10999;51.332;9.458;2023-12-20T12:28:17;5.07;;;1.30;;
21675;SDS011;10999;51.332;9.458;2023-12-20T12:30:55;5.00;;;1.35;;
21675;SDS011;10999;51.332;9.458;2023-12-20T12:33:27;5.18;;;1.30;;
21675;SDS011;10999;51.332;9.458;2023-12-20T12:35:54;7.47;;;2.47;;
21675;SDS011;10999;51.332;9.458;2023-12-20T12:38:21;12.32;;;1.63;;
21675;SDS011;10999;51.332;9.458;2023-12-20T12:40:49;6.90;;;1.52;;
21675;SDS011;10999;51.332;9.458;2023-12-20T12:43:16;5.40;;;1.58;;
21675;SDS011;10999;51.332;9.458;2023-12-20T12:45:43;6.32;;;1.67;;
21675;SDS011;10999;51.332;9.458;2023-12-20T12:48:10;5.40;;;1.50;;
21675;SDS011;10999;51.332;9.458;2023-12-20T12:50:37;4.75;;;1.60;;
21675;SDS011;10999;51.332;9.458;2023-12-20T12:53:04;6.50;;;1.50;;
21675;SDS011;10999;51.332;9.458;2023-12-20T12:55:31;6.47;;;1.73;;
21675;SDS011;10999;51.332;9.458;2023-12-20T12:57:58;3.55;;;1.13;;
21675;SDS011;10999;51.332;9.458;2023-12-20T13:00:24;7.32;;;1.48;;
21675;SDS011;10999;51.332;9.458;2023-12-20T13:02:52;7.75;;;1.95;;
21675;SDS011;10999;51.332;9.458;2023-12-20T13:05:19;4.43;;;1.45;;
21675;SDS011;10999;51.332;9.458;2023-12-20T13:07:46;4.60;;;1.50;;
21675;SDS011;10999;51.332;9.458;2023-12-20T13:10:14;5.95;;;1.52;;
21675;SDS011;10999;51.332;9.458;2023-12-20T13:12:43;4.68;;;1.10;;
21675;SDS011;10999;51.332;9.458;2023-12-20T13:15:11;2.78;;;0.95;;
21675;SDS011;10999;51.332;9.458;2023-12-20T13:17:38;3.20;;;0.90;;
21675;SDS011;10999;51.332;9.458;2023-12-20T13:20:07;1.92;;;0.95;;
21675;SDS011;10999;51.332;9.458;2023-12-20T13:22:35;6.47;;;1.38;;
21675;SDS011;10999;51.332;9.458;2023-12-20T13:25:04;8.13;;;1.50;;
21675;SDS011;10999;51.332;9.458;2023-12-20T13:27:32;4.32;;;1.80;;
21675;SDS011;10999;51.332;9.458;2023-12-20T13:30:01;5.68;;;1.40;;
21675;SDS011;10999;51.332;9.458;2023-12-20T13:32:29;4.85;;;1.15;;
21675;SDS011;10999;51.332;9.458;2023-12-20T13:34:56;5.95;;;1.67;;
21675;SDS011;10999;51.332;9.458;2023-12-20T13:37:26;4.65;;;1.20;;
21675;SDS011;10999;51.332;9.458;2023-12-20T13:39:58;3.28;;;1.30;;
21675;SDS011;10999;51.332;9.458;2023-12-20T13:42:25;4.28;;;1.13;;
21675;SDS011;10999;51.332;9.458;2023-12-20T13:44:56;3.58;;;1.20;;
21675;SDS011;10999;51.332;9.458;2023-12-20T13:47:26;3.42;;;0.98;;
21675;SDS011;10999;51.332;9.458;2023-12-20T13:50:03;2.95;;;1.15;;
21675;SDS011;10999;51.332;9.458;2023-12-20T13:52:34;2.50;;;0.93;;
21675;SDS011;10999;51.332;9.458;2023-12-20T13:55:05;3.25;;;1.10;;
21675;SDS011;10999;51.332;9.458;2023-12-20T13:57:36;6.88;;;1.30;;
21675;SDS011;10999;51.332;9.458;2023-12-20T14:00:20;4.47;;;1.15;;
21675;SDS011;10999;51.332;9.458;2023-12-20T14:02:47;5.05;;;1.25;;
21675;SDS011;10999;51.332;9.458;2023-12-20T14:05:16;3.47;;;1.02;;
21675;SDS011;10999;51.332;9.458;2023-12-20T14:07:50;3.72;;;1.08;;
21675;SDS011;10999;51.332;9.458;2023-12-20T14:10:17;3.47;;;1.23;;
21675;SDS011;10999;51.332;9.458;2023-12-20T14:12:44;4.60;;;1.20;;
21675;SDS011;10999;51.332;9.458;2023-12-20T14:15:11;3.70;;;2.10;;
21675;SDS011;10999;51.332;9.458;2023-12-20T14:17:40;5.38;;;1.20;;
21675;SDS011;10999;51.332;9.458;2023-12-20T14:20:11;3.47;;;1.33;;
21675;SDS011;10999;51.332;9.458;2023-12-20T14:22:42;2.20;;;1.27;;
21675;SDS011;10999;51.332;9.458;2023-12-20T14:25:11;6.38;;;1.48;;
21675;SDS011;10999;51.332;9.458;2023-12-20T14:27:41;4.40;;;1.27;;
21675;SDS011;10999;51.332;9.458;2023-12-20T14:32:44;5.10;;;1.17;;
21675;SDS011;10999;51.332;9.458;2023-12-20T14:35:14;3.88;;;1.08;;
21675;SDS011;10999;51.332;9.458;2023-12-20T14:37:41;3.28;;;0.95;;
21675;SDS011;10999;51.332;9.458;2023-12-20T14:40:09;4.78;;;1.40;;
21675;SDS011;10999;51.332;9.458;2023-12-20T14:45:10;2.22;;;1.00;;
21675;SDS011;10999;51.332;9.458;2023-12-20T14:47:37;3.80;;;1.17;;
21675;SDS011;10999;51.332;9.458;2023-12-20T14:50:07;2.72;;;1.00;;
21675;SDS011;10999;51.332;9.458;2023-12-20T14:52:35;3.50;;;1.10;;
21675;SDS011;10999;51.332;9.458;2023-12-20T14:55:04;5.30;;;1.20;;
21675;SDS011;10999;51.332;9.458;2023-12-20T14:57:40;5.45;;;1.38;;
21675;SDS011;10999;51.332;9.458;2023-12-20T15:00:08;4.53;;;1.17;;
21675;SDS011;10999;51.332;9.458;2023-12-20T15:02:36;3.67;;;1.33;;
21675;SDS011;10999;51.332;9.458;2023-12-20T15:05:05;3.30;;;1.38;;
21675;SDS011;10999;51.332;9.458;2023-12-20T15:07:35;4.72;;;1.40;;
21675;SDS011;10999;51.332;9.458;2023-12-20T15:10:03;4.75;;;1.50;;
21675;SDS011;10999;51.332;9.458;2023-12-20T15:12:30;5.15;;;1.67;;
21675;SDS011;10999;51.332;9.458;2023-12-20T15:15:00;2.40;;;1.17;;
21675;SDS011;10999;51.332;9.458;2023-12-20T15:17:27;5.13;;;1.17;;
21675;SDS011;10999;51.332;9.458;2023-12-20T15:19:54;5.15;;;1.20;;
21675;SDS011;10999;51.332;9.458;2023-12-20T15:22:22;6.00;;;1.40;;
21675;SDS011;10999;51.332;9.458;2023-12-20T15:24:52;3.58;;;1.48;;
21675;SDS011;10999;51.332;9.458;2023-12-20T15:27:21;5.47;;;1.40;;
21675;SDS011;10999;51.332;9.458;2023-12-20T15:29:50;5.35;;;1.20;;
21675;SDS011;10999;51.332;9.458;2023-12-20T15:32:18;5.07;;;1.40;;
21675;SDS011;10999;51.332;9.458;2023-12-20T15:34:45;3.25;;;1.27;;
21675;SDS011;10999;51.332;9.458;2023-12-20T15:37:12;4.07;;;1.42;;
21675;SDS011;10999;51.332;9.458;2023-12-20T15:39:43;4.63;;;1.42;;
21675;SDS011;10999;51.332;9.458;2023-12-20T15:42:10;4.72;;;1.60;;
21675;SDS011;10999;51.332;9.458;2023-12-20T15:44:37;5.00;;;1.52;;